Time;durP1;ratioP1;P1;durP2;ratioP2;P2;SDS_P1;SDS_P2;PMS_P1;PMS_P2;Temp;Humidity;BMP_temperature;BMP_pressure;BME280_temperature;BME280_humidity;BME280_pressure;Samples;Min_cycle;Max_cycle;Signal;HPM_P1;HPM_P2
2023/03/04 00:01:25;;;;;;;66.43;31.33;;;2.50;99.90;;;;;;5060622;28;20170;-74
2023/03/04 00:03:52;;;;;;;65.97;33.30;;;2.50;99.90;;;;;;5066994;28;20131;-74
2023/03/04 00:06:18;;;;;;;65.72;32.13;;;2.60;99.90;;;;;;5047584;28;20147;-74
2023/03/04 00:08:45;;;;;;;63.75;31.02;;;2.60;99.90;;;;;;5048244;28;20040;-75
2023/03/04 00:11:12;;;;;;;57.72;29.33;;;2.60;99.90;;;;;;5042350;28;20042;-74
2023/03/04 00:13:39;;;;;;;60.30;29.20;;;2.70;99.90;;;;;;5068817;28;20040;-75
2023/03/04 00:16:05;;;;;;;60.75;30.02;;;2.70;99.90;;;;;;5059512;28;20048;-74
2023/03/04 00:18:32;;;;;;;58.22;31.30;;;2.70;99.90;;;;;;5037854;28;20123;-75
2023/03/04 00:20:59;;;;;;;54.25;27.95;;;2.70;99.90;;;;;;5045907;28;20099;-75
2023/03/04 00:23:25;;;;;;;64.25;29.13;;;2.70;99.90;;;;;;5026561;28;20072;-75
2023/03/04 00:25:52;;;;;;;56.45;29.52;;;2.70;99.90;;;;;;5035401;28;20051;-73
2023/03/04 00:28:19;;;;;;;56.33;28.05;;;2.70;99.90;;;;;;5047295;28;20215;-73
2023/03/04 00:30:45;;;;;;;55.63;28.15;;;2.80;99.90;;;;;;5044144;28;20048;-74
2023/03/04 00:33:12;;;;;;;63.63;28.60;;;2.70;99.90;;;;;;5040818;28;20126;-73
2023/03/04 00:35:40;;;;;;;60.30;30.15;;;2.80;99.90;;;;;;5042875;28;20564;-74
2023/03/04 00:38:07;;;;;;;56.85;28.70;;;2.70;99.90;;;;;;5034032;28;20500;-74
2023/03/04 00:40:34;;;;;;;53.42;28.55;;;2.80;99.90;;;;;;5041577;28;20040;-74
2023/03/04 00:43:03;;;;;;;61.85;29.13;;;2.80;99.90;;;;;;5044133;28;20185;-74
2023/03/04 00:45:30;;;;;;;57.85;27.17;;;2.70;99.90;;;;;;5031887;28;20048;-73
2023/03/04 00:47:57;;;;;;;62.70;28.40;;;2.70;99.90;;;;;;5035080;28;20126;-73
2023/03/04 00:50:23;;;;;;;48.83;28.02;;;2.80;99.90;;;;;;5043710;28;20072;-74
2023/03/04 00:52:50;;;;;;;60.90;28.52;;;2.80;99.90;;;;;;5039972;28;20079;-73
2023/03/04 00:55:17;;;;;;;54.63;30.45;;;2.80;99.90;;;;;;5039216;28;20024;-74
2023/03/04 00:57:43;;;;;;;60.50;27.83;;;2.80;99.90;;;;;;5041134;28;20635;-73
2023/03/04 01:00:11;;;;;;;54.22;27.33;;;2.70;99.90;;;;;;5024691;28;20410;-74
2023/03/04 01:02:37;;;;;;;56.05;30.08;;;2.70;99.90;;;;;;5034634;28;20524;-74
2023/03/04 01:05:05;;;;;;;56.50;28.15;;;2.80;99.90;;;;;;5043959;28;20036;-74
2023/03/04 01:07:32;;;;;;;54.03;27.20;;;2.70;99.90;;;;;;5045432;28;20078;-74
2023/03/04 01:09:59;;;;;;;56.92;27.40;;;2.70;99.90;;;;;;5043985;28;20055;-74
2023/03/04 01:12:27;;;;;;;63.63;30.63;;;2.80;99.90;;;;;;5046011;28;20043;-74
2023/03/04 01:14:53;;;;;;;60.00;28.45;;;2.80;99.90;;;;;;5039420;28;20048;-73
2023/03/04 01:17:20;;;;;;;54.90;27.42;;;2.80;99.90;;;;;;5030698;28;20040;-73
2023/03/04 01:19:47;;;;;;;58.13;27.08;;;2.70;99.90;;;;;;5035962;28;20037;-74
2023/03/04 01:22:15;;;;;;;53.88;27.98;;;2.70;99.90;;;;;;5045257;28;20051;-74
2023/03/04 01:24:42;;;;;;;65.05;28.20;;;2.80;99.90;;;;;;5036908;28;20109;-74
2023/03/04 01:27:08;;;;;;;50.85;28.50;;;2.80;99.90;;;;;;5027031;28;20060;-74
2023/03/04 01:29:35;;;;;;;61.30;29.13;;;2.80;99.90;;;;;;5042589;28;20039;-74
2023/03/04 01:32:02;;;;;;;57.42;28.63;;;2.80;99.90;;;;;;5053538;28;20043;-73
2023/03/04 01:34:30;;;;;;;58.65;29.55;;;2.70;99.90;;;;;;5049846;28;20215;-72
2023/03/04 01:36:56;;;;;;;58.25;29.48;;;2.70;99.90;;;;;;5045743;28;20139;-74
2023/03/04 01:39:23;;;;;;;58.05;28.83;;;2.80;99.90;;;;;;5053111;28;20045;-74
2023/03/04 01:41:50;;;;;;;61.63;27.77;;;2.80;99.90;;;;;;5040259;28;20541;-73
2023/03/04 01:44:17;;;;;;;57.75;27.30;;;2.60;99.90;;;;;;5038544;28;20069;-73
2023/03/04 01:46:49;;;;;;;49.08;24.77;;;2.60;99.90;;;;;;5031891;28;20041;-74
2023/03/04 01:49:16;;;;;;;54.45;24.10;;;2.60;99.90;;;;;;5034484;28;20044;-73
2023/03/04 01:51:47;;;;;;;52.60;25.40;;;2.70;99.90;;;;;;5038359;28;20041;-72
2023/03/04 01:54:15;;;;;;;44.60;25.70;;;2.60;99.90;;;;;;5043709;28;20041;-74
2023/03/04 01:56:45;;;;;;;56.50;26.35;;;2.60;99.90;;;;;;5037116;28;20047;-73
2023/03/04 01:59:15;;;;;;;57.10;24.67;;;2.70;99.90;;;;;;5032338;28;20745;-74
2023/03/04 02:01:45;;;;;;;45.92;24.02;;;2.70;99.90;;;;;;5034815;28;20048;-73
2023/03/04 02:04:13;;;;;;;44.75;23.20;;;2.70;99.90;;;;;;5025387;28;20595;-73
2023/03/04 02:06:41;;;;;;;50.85;24.83;;;2.70;99.90;;;;;;5039609;28;20115;-73
2023/03/04 02:09:08;;;;;;;58.15;25.42;;;2.70;99.90;;;;;;5039085;28;20041;-73
2023/03/04 02:11:37;;;;;;;45.63;24.40;;;2.70;99.90;;;;;;5036539;28;20404;-72
2023/03/04 02:14:04;;;;;;;48.25;25.50;;;2.70;99.90;;;;;;5039041;28;20059;-73
2023/03/04 02:16:32;;;;;;;48.70;23.83;;;2.70;99.90;;;;;;5039841;28;20044;-73
2023/03/04 02:18:59;;;;;;;48.83;25.17;;;2.70;99.90;;;;;;5035107;28;20062;-74
2023/03/04 02:21:32;;;;;;;45.10;25.40;;;2.70;99.90;;;;;;5023607;28;20052;-72
2023/03/04 02:24:22;;;;;;;64.00;26.20;;;2.70;99.90;;;;;;5036915;28;20072;-75
2023/03/04 02:26:49;;;;;;;53.05;27.38;;;2.70;99.90;;;;;;5038064;28;20057;-75
2023/03/04 02:29:17;;;;;;;53.63;26.50;;;2.70;99.90;;;;;;5034262;28;20059;-74
2023/03/04 02:31:46;;;;;;;58.15;27.15;;;2.70;99.90;;;;;;5034470;28;20041;-74
2023/03/04 02:34:22;;;;;;;66.65;26.08;;;2.80;99.90;;;;;;5039756;28;20037;-75
2023/03/04 02:36:52;;;;;;;53.45;27.08;;;2.70;99.90;;;;;;5047119;28;20111;-75
2023/03/04 02:39:18;;;;;;;56.53;27.35;;;2.70;99.90;;;;;;5047592;28;20048;-75
2023/03/04 02:41:47;;;;;;;51.15;24.58;;;2.70;99.90;;;;;;5043888;28;20063;-75
2023/03/04 02:44:16;;;;;;;53.55;25.15;;;2.70;99.90;;;;;;5043394;28;20048;-73
2023/03/04 02:46:43;;;;;;;57.65;24.63;;;2.70;99.90;;;;;;5025796;28;20552;-73
2023/03/04 02:49:10;;;;;;;58.25;24.55;;;2.70;99.90;;;;;;5029801;28;20045;-73
2023/03/04 02:51:36;;;;;;;56.92;22.15;;;2.70;99.90;;;;;;5043720;28;20040;-73
2023/03/04 02:54:03;;;;;;;52.60;24.38;;;2.70;99.90;;;;;;5033267;28;20131;-73
2023/03/04 02:56:30;;;;;;;43.85;23.38;;;2.70;99.90;;;;;;5033595;28;20048;-73
2023/03/04 02:58:57;;;;;;;44.28;23.58;;;2.70;99.90;;;;;;5044622;28;20083;-73
2023/03/04 03:01:27;;;;;;;49.50;23.35;;;2.70;99.90;;;;;;5047547;28;20076;-72
2023/03/04 03:03:54;;;;;;;45.42;20.60;;;2.80;99.90;;;;;;5026456;28;20087;-74
2023/03/04 03:06:21;;;;;;;45.50;22.25;;;2.80;99.90;;;;;;5026443;28;20769;-73
2023/03/04 03:08:48;;;;;;;47.38;23.88;;;2.80;99.90;;;;;;5021802;28;20052;-73
2023/03/04 03:11:16;;;;;;;47.42;20.58;;;2.80;99.90;;;;;;5036756;28;20326;-73
2023/03/04 03:13:43;;;;;;;51.47;20.00;;;2.90;99.90;;;;;;5045143;28;20052;-73
2023/03/04 03:16:10;;;;;;;42.38;20.65;;;2.80;99.90;;;;;;5045930;28;20494;-73
2023/03/04 03:18:37;;;;;;;33.08;19.73;;;2.80;99.90;;;;;;5052778;28;20110;-73
2023/03/04 03:21:04;;;;;;;48.00;21.73;;;2.80;99.90;;;;;;5034493;28;20110;-74
2023/03/04 03:23:30;;;;;;;40.00;20.85;;;3.00;99.90;;;;;;5039759;28;20226;-73
2023/03/04 03:25:57;;;;;;;44.97;20.83;;;2.90;99.90;;;;;;5034570;28;20041;-73
2023/03/04 03:28:26;;;;;;;44.67;19.45;;;2.90;99.90;;;;;;5051018;28;20550;-72
2023/03/04 03:30:53;;;;;;;37.42;18.58;;;3.00;99.90;;;;;;5040885;28;20037;-73
2023/03/04 03:33:20;;;;;;;40.38;19.35;;;2.90;99.90;;;;;;5045705;28;20070;-73
2023/03/04 03:35:47;;;;;;;31.92;18.65;;;2.90;99.90;;;;;;5034847;28;20106;-73
2023/03/04 03:38:14;;;;;;;36.58;19.83;;;3.00;99.90;;;;;;5043328;28;20040;-73
2023/03/04 03:40:41;;;;;;;38.28;18.27;;;3.00;99.90;;;;;;5045246;28;20048;-74
2023/03/04 03:43:08;;;;;;;43.67;18.95;;;3.00;99.90;;;;;;5040485;28;20044;-74
2023/03/04 03:45:34;;;;;;;44.38;18.35;;;3.00;99.90;;;;;;5036334;28;20638;-73
2023/03/04 03:48:01;;;;;;;31.95;19.58;;;3.00;99.90;;;;;;5035739;28;20533;-73
2023/03/04 03:50:28;;;;;;;34.83;17.42;;;3.00;99.90;;;;;;5045419;28;20041;-73
2023/03/04 03:52:55;;;;;;;32.38;18.92;;;3.00;99.90;;;;;;5043322;28;20058;-73
2023/03/04 03:55:22;;;;;;;36.63;17.90;;;3.00;99.90;;;;;;5042290;28;20041;-73
2023/03/04 03:57:49;;;;;;;31.40;17.33;;;3.00;99.90;;;;;;5043789;28;20033;-73
2023/03/04 04:00:16;;;;;;;39.90;17.88;;;3.10;99.90;;;;;;5043485;28;20124;-73
2023/03/04 04:02:42;;;;;;;40.03;17.15;;;3.10;99.90;;;;;;5028721;28;20626;-73
2023/03/04 04:05:09;;;;;;;32.03;16.30;;;3.10;99.90;;;;;;5040899;28;20205;-73
2023/03/04 04:07:36;;;;;;;32.45;16.00;;;3.00;99.90;;;;;;5017419;28;20037;-73
2023/03/04 04:10:04;;;;;;;28.85;16.23;;;3.00;99.90;;;;;;5038408;28;20041;-73
2023/03/04 04:12:31;;;;;;;35.03;16.30;;;2.90;99.90;;;;;;5040027;28;20045;-73
2023/03/04 04:14:58;;;;;;;31.40;16.35;;;3.00;99.90;;;;;;5028839;28;20050;-73
2023/03/04 04:17:24;;;;;;;28.65;15.80;;;3.00;99.90;;;;;;5042412;28;20068;-73
2023/03/04 04:19:51;;;;;;;36.47;16.13;;;2.90;99.90;;;;;;5044584;28;20490;-75
2023/03/04 04:22:19;;;;;;;23.77;15.73;;;2.90;99.90;;;;;;5046177;28;20037;-73
2023/03/04 04:24:47;;;;;;;28.67;17.10;;;3.00;99.90;;;;;;5036435;28;20049;-73
2023/03/04 04:27:14;;;;;;;37.33;18.00;;;3.00;99.90;;;;;;5038499;28;20076;-74
2023/03/04 04:29:41;;;;;;;47.95;18.00;;;3.00;99.90;;;;;;5037006;28;20037;-73
2023/03/04 04:32:07;;;;;;;28.90;16.35;;;2.90;99.90;;;;;;5043488;28;20039;-73
2023/03/04 04:34:34;;;;;;;41.85;17.73;;;2.90;99.90;;;;;;5036600;28;20045;-73
2023/03/04 04:37:01;;;;;;;28.98;15.82;;;3.00;99.90;;;;;;5035058;28;20041;-74
2023/03/04 04:39:28;;;;;;;30.50;16.98;;;2.90;99.90;;;;;;5045783;28;20133;-72
2023/03/04 04:41:54;;;;;;;38.65;15.73;;;2.90;99.90;;;;;;5031278;28;20052;-73
2023/03/04 04:44:21;;;;;;;32.70;16.23;;;2.90;99.90;;;;;;5048354;28;20069;-73
2023/03/04 04:46:49;;;;;;;39.10;15.73;;;3.00;99.90;;;;;;5038079;28;20401;-73
2023/03/04 04:49:15;;;;;;;33.97;16.45;;;2.90;99.90;;;;;;5036430;28;20045;-73
2023/03/04 04:51:42;;;;;;;30.83;15.57;;;3.00;99.90;;;;;;5033944;28;20116;-72
2023/03/04 04:54:11;;;;;;;32.00;15.48;;;3.00;99.90;;;;;;5036132;28;20029;-73
2023/03/04 04:56:37;;;;;;;47.55;15.63;;;3.00;99.90;;;;;;5035585;28;20105;-73
2023/03/04 04:59:07;;;;;;;38.20;16.52;;;3.10;99.90;;;;;;5038015;28;20057;-73
2023/03/04 05:01:34;;;;;;;32.38;15.98;;;3.10;99.90;;;;;;5041541;28;20045;-73
2023/03/04 05:04:01;;;;;;;39.65;15.93;;;3.10;99.90;;;;;;5044955;28;20753;-73
2023/03/04 05:06:28;;;;;;;46.70;16.35;;;3.00;99.90;;;;;;5040697;28;20043;-74
2023/03/04 05:08:54;;;;;;;32.92;16.23;;;2.90;99.90;;;;;;5024182;28;20140;-74
2023/03/04 05:11:21;;;;;;;29.85;16.42;;;3.00;99.90;;;;;;5035277;28;20033;-74
2023/03/04 05:13:48;;;;;;;34.60;15.85;;;3.00;99.90;;;;;;5041116;28;20041;-73
2023/03/04 05:16:16;;;;;;;37.13;16.38;;;3.00;99.90;;;;;;5038729;28;20043;-73
2023/03/04 05:18:43;;;;;;;39.83;16.48;;;2.90;99.90;;;;;;5031987;28;20149;-74
2023/03/04 05:21:10;;;;;;;31.63;14.57;;;3.00;99.90;;;;;;5042015;28;20045;-73
2023/03/04 05:23:39;;;;;;;36.40;15.70;;;2.90;99.90;;;;;;5033968;28;20045;-75
2023/03/04 05:26:08;;;;;;;39.67;13.95;;;2.90;99.90;;;;;;5036870;28;20054;-74
2023/03/04 05:28:35;;;;;;;34.40;14.93;;;2.90;99.90;;;;;;5045289;28;20251;-74
2023/03/04 05:31:02;;;;;;;27.85;15.25;;;2.90;99.90;;;;;;5034883;28;20127;-73
2023/03/04 05:33:29;;;;;;;35.50;14.73;;;2.90;99.90;;;;;;5041727;28;20036;-74
2023/03/04 05:35:56;;;;;;;41.30;16.17;;;2.90;99.90;;;;;;5037988;28;20123;-74
2023/03/04 05:38:24;;;;;;;35.05;14.10;;;3.00;99.90;;;;;;5046822;28;20663;-74
2023/03/04 05:40:57;;;;;;;34.38;15.98;;;3.00;99.90;;;;;;5040796;28;20136;-74
2023/03/04 05:43:26;;;;;;;39.17;14.90;;;3.00;99.90;;;;;;5037792;28;20049;-73
2023/03/04 05:45:54;;;;;;;22.80;13.60;;;2.90;99.90;;;;;;5034101;28;20684;-74
2023/03/04 05:48:20;;;;;;;30.60;14.07;;;3.00;99.90;;;;;;5037305;28;20431;-74
2023/03/04 05:50:53;;;;;;;30.60;13.65;;;3.00;99.90;;;;;;5058322;28;20036;-73
2023/03/04 05:53:19;;;;;;;31.92;14.52;;;3.00;99.90;;;;;;5031085;28;20045;-74
2023/03/04 05:55:46;;;;;;;29.45;13.98;;;3.00;99.90;;;;;;5055309;28;20047;-74
2023/03/04 05:58:14;;;;;;;28.55;13.43;;;3.10;99.90;;;;;;5042187;28;20079;-73
2023/03/04 06:00:41;;;;;;;29.35;14.43;;;3.10;99.90;;;;;;5033825;28;20043;-74
2023/03/04 06:03:17;;;;;;;28.63;15.25;;;3.00;99.90;;;;;;5038706;28;20375;-74
2023/03/04 06:05:44;;;;;;;30.80;14.30;;;3.00;99.90;;;;;;5030478;28;20071;-73
2023/03/04 06:08:11;;;;;;;30.35;14.30;;;3.00;99.90;;;;;;5049480;28;20037;-74
2023/03/04 06:10:40;;;;;;;25.38;13.75;;;3.00;99.90;;;;;;5060461;28;20048;-74
2023/03/04 06:13:07;;;;;;;21.60;13.95;;;3.00;99.90;;;;;;5032784;28;20210;-75
2023/03/04 06:15:33;;;;;;;30.45;14.52;;;3.00;99.90;;;;;;5025151;28;20540;-75
2023/03/04 06:18:00;;;;;;;34.88;15.05;;;3.10;99.90;;;;;;5043347;28;20101;-75
2023/03/04 06:20:27;;;;;;;32.30;14.52;;;3.00;99.90;;;;;;5036633;28;20461;-74
2023/03/04 06:22:54;;;;;;;26.25;14.52;;;3.10;99.90;;;;;;5059734;28;20160;-75
2023/03/04 06:25:21;;;;;;;32.10;13.70;;;3.10;99.90;;;;;;5047657;28;20132;-75
2023/03/04 06:27:48;;;;;;;26.95;13.07;;;3.10;99.90;;;;;;5053148;28;20136;-74
2023/03/04 06:30:17;;;;;;;27.88;12.88;;;3.10;99.90;;;;;;5054517;28;20090;-75
2023/03/04 06:32:46;;;;;;;32.85;12.98;;;3.10;99.90;;;;;;5054601;28;20044;-75
2023/03/04 06:35:15;;;;;;;22.65;12.80;;;3.10;99.90;;;;;;5033984;28;20138;-74
2023/03/04 06:37:42;;;;;;;25.05;11.02;;;3.00;99.90;;;;;;5042562;28;20044;-73
2023/03/04 06:40:10;;;;;;;26.42;10.63;;;3.00;99.90;;;;;;5035099;28;20055;-75
2023/03/04 06:42:38;;;;;;;25.75;9.77;;;3.00;99.90;;;;;;5032585;28;20677;-74
2023/03/04 06:45:06;;;;;;;24.33;9.40;;;2.90;99.90;;;;;;5044446;28;20749;-75
2023/03/04 06:47:32;;;;;;;27.13;9.77;;;2.90;99.90;;;;;;5058803;28;20043;-75
2023/03/04 06:49:59;;;;;;;23.02;11.73;;;2.90;99.90;;;;;;5041075;28;20039;-73
2023/03/04 06:52:26;;;;;;;20.38;11.80;;;2.90;99.90;;;;;;5017803;28;20183;-74
2023/03/04 06:54:52;;;;;;;24.15;9.68;;;3.00;99.90;;;;;;5043059;28;20075;-74
2023/03/04 06:57:19;;;;;;;20.48;10.90;;;3.00;99.90;;;;;;5040338;28;20135;-75
2023/03/04 06:59:46;;;;;;;22.10;10.63;;;3.00;99.90;;;;;;5035655;28;20045;-74
2023/03/04 07:02:12;;;;;;;19.38;9.80;;;3.10;99.90;;;;;;5032592;28;20449;-74
2023/03/04 07:04:39;;;;;;;27.55;10.13;;;3.20;99.90;;;;;;5033657;28;20073;-74
2023/03/04 07:07:06;;;;;;;24.38;10.15;;;3.10;99.90;;;;;;5031408;28;20049;-75
2023/03/04 07:09:32;;;;;;;26.45;9.90;;;3.10;99.90;;;;;;5049096;28;20049;-74
2023/03/04 07:11:59;;;;;;;32.22;11.35;;;3.10;99.90;;;;;;5063724;28;20108;-74
2023/03/04 07:14:26;;;;;;;25.73;10.43;;;3.10;99.90;;;;;;5074030;28;20044;-74
2023/03/04 07:16:53;;;;;;;32.72;10.60;;;3.10;99.90;;;;;;5041471;28;20109;-74
2023/03/04 07:19:21;;;;;;;31.40;11.45;;;3.10;99.90;;;;;;5044345;28;20037;-75
2023/03/04 07:21:47;;;;;;;25.90;9.98;;;3.10;99.90;;;;;;5033956;28;20064;-74
2023/03/04 07:24:14;;;;;;;29.15;10.57;;;3.10;99.90;;;;;;5039278;28;20051;-74
2023/03/04 07:26:41;;;;;;;35.42;10.68;;;3.10;99.90;;;;;;5043429;28;20052;-75
2023/03/04 07:29:08;;;;;;;22.95;10.60;;;3.20;99.90;;;;;;5046305;28;20067;-75
2023/03/04 07:31:35;;;;;;;25.75;10.68;;;3.30;99.90;;;;;;5030403;28;20151;-76
2023/03/04 07:34:05;;;;;;;21.85;9.07;;;3.40;99.90;;;;;;5043182;28;20239;-74
2023/03/04 07:36:34;;;;;;;27.73;10.73;;;3.40;99.90;;;;;;5041515;28;20041;-75
2023/03/04 07:39:02;;;;;;;21.02;9.35;;;3.30;99.90;;;;;;5028338;28;20055;-75
2023/03/04 07:41:29;;;;;;;30.25;11.35;;;3.40;99.90;;;;;;5033092;28;20333;-75
2023/03/04 07:43:57;;;;;;;27.02;9.85;;;3.30;99.90;;;;;;5031016;28;20671;-75
2023/03/04 07:46:24;;;;;;;21.52;8.98;;;3.30;99.90;;;;;;5038584;28;20609;-75
2023/03/04 07:48:51;;;;;;;23.23;9.05;;;3.20;99.90;;;;;;5014826;28;20040;-74
2023/03/04 07:51:23;;;;;;;22.90;9.88;;;3.30;99.90;;;;;;5037781;28;20040;-74
2023/03/04 07:53:56;;;;;;;24.05;10.40;;;3.40;99.90;;;;;;5034248;28;20045;-74
2023/03/04 07:56:26;;;;;;;24.67;10.05;;;3.40;99.90;;;;;;5053192;28;20166;-74
2023/03/04 07:58:53;;;;;;;29.48;10.43;;;3.40;99.90;;;;;;5047546;28;20045;-74
2023/03/04 08:01:26;;;;;;;25.88;10.43;;;3.50;99.90;;;;;;5039469;28;20051;-75
2023/03/04 08:03:52;;;;;;;23.60;10.52;;;3.50;99.90;;;;;;5037266;28;20053;-76
2023/03/04 08:06:20;;;;;;;22.55;11.20;;;3.60;99.90;;;;;;5063768;28;20151;-75
2023/03/04 08:08:48;;;;;;;20.10;9.73;;;3.50;99.90;;;;;;5055932;28;20076;-75
2023/03/04 08:11:19;;;;;;;22.85;9.88;;;3.50;99.90;;;;;;5057383;28;20044;-75
2023/03/04 08:13:46;;;;;;;26.60;10.65;;;3.50;99.90;;;;;;5033687;28;20132;-74
2023/03/04 08:16:14;;;;;;;24.20;8.77;;;3.50;99.90;;;;;;5040153;28;20044;-75
2023/03/04 08:18:43;;;;;;;19.00;9.13;;;3.40;99.90;;;;;;5027425;28;20639;-75
2023/03/04 08:21:11;;;;;;;22.90;10.02;;;3.40;99.90;;;;;;5034329;28;20044;-75
2023/03/04 08:23:39;;;;;;;31.10;9.80;;;3.40;99.90;;;;;;5016812;28;20132;-75
2023/03/04 08:26:08;;;;;;;18.70;8.43;;;3.50;99.90;;;;;;5056853;28;20688;-75
2023/03/04 08:28:36;;;;;;;22.10;8.40;;;3.40;99.90;;;;;;5040078;28;20074;-75
2023/03/04 08:31:02;;;;;;;19.45;7.45;;;3.50;99.90;;;;;;5036533;28;20131;-75
2023/03/04 08:33:30;;;;;;;29.65;9.02;;;3.40;99.90;;;;;;5038634;28;20044;-75
2023/03/04 08:35:58;;;;;;;29.02;8.20;;;3.40;99.90;;;;;;5053374;28;20052;-75
2023/03/04 08:38:25;;;;;;;28.42;8.70;;;3.40;99.90;;;;;;5040972;28;20461;-75
2023/03/04 08:40:56;;;;;;;28.73;9.02;;;3.40;99.90;;;;;;5040480;28;20062;-75
2023/03/04 08:43:24;;;;;;;24.17;9.60;;;3.40;99.90;;;;;;5042304;28;20619;-75
2023/03/04 08:45:53;;;;;;;29.35;8.48;;;3.40;99.90;;;;;;5052293;28;20037;-75
2023/03/04 08:48:20;;;;;;;21.42;10.27;;;3.30;99.90;;;;;;5062483;28;20044;-74
2023/03/04 08:50:48;;;;;;;17.92;7.60;;;3.40;99.90;;;;;;5024837;28;20040;-75
2023/03/04 08:53:16;;;;;;;24.50;8.77;;;3.30;99.90;;;;;;5038601;28;20044;-75
2023/03/04 08:55:43;;;;;;;23.05;9.45;;;3.30;99.90;;;;;;5057195;28;20044;-76
2023/03/04 08:58:10;;;;;;;23.10;9.35;;;3.30;99.90;;;;;;5048187;28;20048;-75
2023/03/04 09:00:39;;;;;;;17.20;9.30;;;3.40;99.90;;;;;;5046386;28;20428;-74
2023/03/04 09:03:06;;;;;;;28.05;9.48;;;3.40;99.90;;;;;;5042925;28;20057;-73
2023/03/04 09:05:33;;;;;;;28.80;9.18;;;3.50;99.90;;;;;;5026605;28;20245;-75
2023/03/04 09:07:59;;;;;;;37.90;12.90;;;3.50;99.90;;;;;;5048905;28;20443;-74
2023/03/04 09:10:26;;;;;;;26.10;9.55;;;3.50;99.90;;;;;;5043699;28;20032;-75
2023/03/04 09:12:53;;;;;;;33.60;10.95;;;3.60;99.90;;;;;;5053276;28;20448;-74
2023/03/04 09:15:20;;;;;;;29.60;8.90;;;3.60;99.90;;;;;;5042394;28;20413;-73
2023/03/04 09:17:46;;;;;;;26.77;9.93;;;3.60;99.90;;;;;;5046710;28;20055;-72
2023/03/04 09:20:13;;;;;;;21.13;9.00;;;3.50;99.90;;;;;;5040101;28;20417;-75
2023/03/04 09:22:41;;;;;;;27.55;9.70;;;3.60;99.90;;;;;;5058266;28;20142;-74
2023/03/04 09:25:12;;;;;;;29.40;10.82;;;3.50;99.90;;;;;;5038831;28;20040;-74
2023/03/04 09:27:39;;;;;;;40.17;11.88;;;3.60;99.90;;;;;;5055027;28;20045;-75
2023/03/04 09:30:07;;;;;;;25.35;9.95;;;3.40;99.90;;;;;;5038386;28;20717;-75
2023/03/04 09:32:34;;;;;;;26.17;9.23;;;3.50;99.90;;;;;;5047216;28;20127;-76
2023/03/04 09:35:00;;;;;;;30.33;8.82;;;3.50;99.90;;;;;;5030582;28;20052;-74
2023/03/04 09:37:27;;;;;;;23.80;8.75;;;3.50;99.90;;;;;;5050419;28;20044;-75
2023/03/04 09:39:54;;;;;;;17.13;8.90;;;3.50;99.90;;;;;;5039121;28;20091;-76
2023/03/04 09:42:35;;;;;;;22.20;9.02;;;3.50;99.90;;;;;;5038712;28;20147;-74
2023/03/04 09:45:04;;;;;;;23.58;8.18;;;3.60;99.90;;;;;;5021127;28;20082;-76
2023/03/04 09:47:34;;;;;;;22.95;8.38;;;3.50;99.90;;;;;;5038847;28;20549;-75
2023/03/04 09:50:05;;;;;;;19.77;9.48;;;3.50;99.90;;;;;;5033493;28;20047;-73
2023/03/04 09:53:01;;;;;;;30.38;9.60;;;3.60;99.90;;;;;;5037465;28;20037;-74
2023/03/04 09:55:36;;;;;;;28.58;9.05;;;3.60;99.90;;;;;;5022287;28;20041;-72
2023/03/04 09:58:02;;;;;;;;;;;3.70;99.90;;;;;;5034546;28;20055;-77
2023/03/04 10:00:51;;;;;;;24.30;10.32;;;3.60;99.90;;;;;;5017381;28;19924;-74
2023/03/04 10:03:22;;;;;;;27.73;9.63;;;3.70;99.90;;;;;;5035974;28;20457;-74
2023/03/04 10:05:54;;;;;;;21.05;8.48;;;3.70;99.90;;;;;;5013069;28;20048;-73
2023/03/04 10:08:33;;;;;;;21.00;9.95;;;3.70;99.90;;;;;;5026049;28;20132;-73
2023/03/04 10:11:03;;;;;;;20.45;9.27;;;3.70;99.90;;;;;;5020550;28;20128;-78
2023/03/04 10:14:10;;;;;;;25.65;8.95;;;3.70;99.90;;;;;;5030570;28;20102;-73
2023/03/04 10:17:01;;;;;;;28.67;9.70;;;3.70;99.90;;;;;;5029251;28;20636;-76
2023/03/04 10:19:38;;;;;;;28.73;9.90;;;3.70;99.90;;;;;;4997945;28;20259;-75
2023/03/04 10:22:24;;;;;;;32.63;9.63;;;3.70;99.90;;;;;;5042890;28;20282;-77
2023/03/04 10:24:55;;;;;;;32.22;11.02;;;3.80;99.90;;;;;;5016544;28;20044;-75
2023/03/04 10:27:23;;;;;;;28.90;12.65;;;3.70;99.90;;;;;;5036058;28;20137;-74
2023/03/04 10:29:50;;;;;;;23.75;10.13;;;3.70;99.90;;;;;;5030697;28;20391;-75
2023/03/04 10:32:19;;;;;;;19.10;7.88;;;3.70;99.90;;;;;;5027433;28;20045;-75
2023/03/04 10:34:46;;;;;;;21.73;8.90;;;3.70;99.90;;;;;;5035342;28;20052;-77
2023/03/04 10:37:13;;;;;;;20.90;8.45;;;3.80;99.90;;;;;;5029482;28;20127;-77
2023/03/04 10:39:48;;;;;;;19.60;8.63;;;3.80;99.90;;;;;;5035039;28;20037;-77
2023/03/04 10:42:15;;;;;;;20.45;8.40;;;3.90;99.90;;;;;;5030393;28;20128;-76
2023/03/04 10:44:57;;;;;;;22.05;8.05;;;3.80;99.90;;;;;;5025122;28;20461;-77
2023/03/04 10:47:27;;;;;;;20.85;8.95;;;3.90;99.90;;;;;;5052144;28;20075;-76
2023/03/04 10:50:00;;;;;;;16.52;7.57;;;3.90;99.90;;;;;;5020268;28;20076;-76
2023/03/04 10:52:35;;;;;;;19.98;7.60;;;4.00;99.90;;;;;;5047002;28;20207;-79
2023/03/04 10:55:15;;;;;;;21.42;9.18;;;3.90;99.90;;;;;;5049794;28;20048;-79
2023/03/04 10:57:47;;;;;;;14.20;6.82;;;4.00;99.90;;;;;;5025730;28;20434;-76
2023/03/04 11:00:16;;;;;;;16.30;7.97;;;4.10;99.90;;;;;;5040382;28;20152;-75
2023/03/04 11:02:47;;;;;;;17.30;8.18;;;4.00;99.90;;;;;;5043727;28;20062;-75
2023/03/04 11:05:19;;;;;;;20.95;9.65;;;4.10;99.90;;;;;;5027241;28;20274;-79
2023/03/04 11:07:50;;;;;;;14.40;7.55;;;4.00;99.90;;;;;;5038883;28;20071;-76
2023/03/04 11:10:35;;;;;;;15.25;6.88;;;4.00;99.90;;;;;;5033897;28;20063;-77
2023/03/04 11:13:11;;;;;;;14.15;7.32;;;4.10;99.90;;;;;;5046319;28;20051;-76
2023/03/04 11:15:51;;;;;;;8.20;5.45;;;4.10;99.90;;;;;;5025898;28;20067;-77
2023/03/04 11:18:25;;;;;;;17.10;6.75;;;4.00;99.90;;;;;;5048265;28;20044;-77
2023/03/04 11:20:54;;;;;;;9.30;6.13;;;4.10;99.90;;;;;;5032655;28;20576;-77
2023/03/04 11:23:31;;;;;;;12.57;6.07;;;4.00;99.90;;;;;;5037515;28;20752;-77
2023/03/04 11:26:02;;;;;;;16.48;6.30;;;4.10;99.90;;;;;;5045269;28;20104;-77
2023/03/04 11:28:43;;;;;;;21.75;8.02;;;4.10;99.90;;;;;;5052208;28;20567;-76
2023/03/04 11:31:17;;;;;;;17.40;9.05;;;4.10;99.90;;;;;;5039889;28;20052;-77
2023/03/04 11:33:54;;;;;;;17.73;9.07;;;4.20;99.90;;;;;;5055917;28;20445;-76
2023/03/04 11:36:39;;;;;;;20.30;7.82;;;4.10;99.90;;;;;;5043333;28;20564;-75
2023/03/04 11:39:20;;;;;;;14.43;8.23;;;4.20;99.90;;;;;;5037052;28;20124;-75
2023/03/04 11:42:04;;;;;;;18.20;8.68;;;4.10;99.90;;;;;;5055278;28;20056;-77
2023/03/04 11:44:30;;;;;;;19.05;8.80;;;4.20;99.90;;;;;;5063979;28;20112;-76
2023/03/04 11:47:26;;;;;;;17.35;9.25;;;4.20;99.90;;;;;;5046052;28;20524;-76
2023/03/04 11:50:17;;;;;;;25.83;9.77;;;4.20;99.90;;;;;;5048930;28;20037;-76
2023/03/04 11:52:53;;;;;;;25.75;11.63;;;4.30;99.90;;;;;;5042157;28;20068;-77
2023/03/04 11:55:36;;;;;;;21.17;11.43;;;4.30;99.90;;;;;;5031202;28;20329;-76
2023/03/04 11:58:31;;;;;;;22.00;10.95;;;4.30;99.90;;;;;;5044334;28;20052;-75
2023/03/04 12:01:22;;;;;;;17.08;9.35;;;4.50;99.90;;;;;;5065346;28;20102;-75
2023/03/04 12:03:54;;;;;;;18.33;10.30;;;4.50;99.90;;;;;;5039988;28;20058;-76
2023/03/04 12:06:31;;;;;;;18.42;9.18;;;4.50;99.90;;;;;;5045411;28;20248;-76
2023/03/04 12:09:02;;;;;;;20.08;9.93;;;4.60;99.90;;;;;;5018288;28;20044;-75
2023/03/04 12:11:32;;;;;;;13.95;8.55;;;4.60;99.90;;;;;;5039368;28;20047;-77
2023/03/04 12:14:17;;;;;;;15.25;7.80;;;4.70;99.90;;;;;;5033671;28;20049;-75
2023/03/04 12:16:58;;;;;;;13.02;7.70;;;4.70;99.90;;;;;;5046806;28;20105;-76
2023/03/04 12:19:53;;;;;;;12.40;7.38;;;4.70;99.90;;;;;;5029642;28;20547;-78
2023/03/04 12:22:23;;;;;;;18.77;8.73;;;4.90;99.90;;;;;;5022414;28;20041;-78
2023/03/04 12:25:23;;;;;;;17.23;8.98;;;5.00;99.90;;;;;;5023994;28;20078;-78
2023/03/04 12:27:53;;;;;;;16.48;7.15;;;5.10;99.90;;;;;;5030970;28;20122;-78
2023/03/04 12:30:32;;;;;;;15.80;9.32;;;5.00;99.90;;;;;;5041834;28;20052;-78
2023/03/04 12:33:43;;;;;;;15.93;6.90;;;5.10;99.90;;;;;;5033624;28;20052;-78
2023/03/04 12:36:16;;;;;;;15.85;7.63;;;4.90;99.90;;;;;;4981973;28;20050;-78
2023/03/04 12:39:05;;;;;;;13.93;7.18;;;5.00;99.90;;;;;;5020017;28;20048;-78
2023/03/04 12:41:50;;;;;;;10.13;6.18;;;4.90;99.90;;;;;;5033388;28;20048;-78
2023/03/04 12:44:19;;;;;;;17.05;7.05;;;4.90;99.90;;;;;;5048936;28;20098;-78
2023/03/04 12:47:24;;;;;;;10.02;6.55;;;4.90;99.90;;;;;;5024786;28;20060;-78
2023/03/04 12:49:58;;;;;;;12.25;7.32;;;4.90;99.90;;;;;;5038486;28;20049;-78
2023/03/04 12:53:00;;;;;;;22.83;7.30;;;4.80;99.90;;;;;;5032610;28;20131;-77
2023/03/04 12:55:42;;;;;;;9.48;7.20;;;4.80;99.90;;;;;;5036833;28;20094;-77